Time;durP1;ratioP1;P1;durP2;ratioP2;P2;SDS_P1;SDS_P2;PMS_P1;PMS_P2;Temp;Humidity;BMP_temperature;BMP_pressure;BME280_temperature;BME280_humidity;BME280_pressure;Samples;Min_cycle;Max_cycle;Signal;HPM_P1;HPM_P2
2022/05/25 00:01:00;;;;;;;2.30;0.80;;;20.00;99.90;;;20.29;51.77;100846.94;5014421;27;97523;-78
2022/05/25 00:03:28;;;;;;;0.90;0.60;;;20.10;99.90;;;20.30;51.77;100854.00;5016358;27;98300;-77
2022/05/25 00:05:57;;;;;;;1.60;0.60;;;20.10;99.90;;;20.35;51.50;100853.66;5016286;27;98973;-76
2022/05/25 00:08:23;;;;;;;0.97;0.57;;;20.20;99.90;;;20.35;51.45;100851.84;4998230;27;102323;-76
2022/05/25 00:10:49;;;;;;;1.10;0.60;;;20.20;99.90;;;20.38;51.52;100850.75;5018491;27;98088;-76
2022/05/25 00:13:15;;;;;;;0.77;0.60;;;20.20;99.90;;;20.39;51.39;100847.97;5016094;27;97456;-76
2022/05/25 00:15:41;;;;;;;1.43;0.80;;;20.20;99.90;;;20.43;51.29;100849.50;5016321;27;126409;-76
2022/05/25 00:18:06;;;;;;;1.27;0.60;;;20.30;99.90;;;20.47;51.18;100856.34;5014672;27;97947;-77
2022/05/25 00:20:33;;;;;;;0.50;0.50;;;20.40;99.90;;;20.51;51.21;100859.63;5017777;27;99118;-77
2022/05/25 00:22:59;;;;;;;1.27;0.70;;;20.40;99.90;;;20.53;51.06;100859.53;5016167;27;97470;-77
2022/05/25 00:25:30;;;;;;;0.90;0.50;;;20.50;99.90;;;20.53;51.19;100865.75;5036371;27;97975;-76
2022/05/25 00:28:00;;;;;;;1.43;0.90;;;20.40;99.90;;;20.53;51.13;100862.19;5027725;27;99086;-77
2022/05/25 00:30:27;;;;;;;0.73;0.50;;;20.40;99.90;;;20.51;51.21;100873.03;4985466;27;98172;-76
2022/05/25 00:32:55;;;;;;;0.60;0.57;;;20.40;99.90;;;20.51;51.33;100862.31;5013945;27;98984;-76
2022/05/25 00:35:22;;;;;;;0.90;0.77;;;20.40;99.90;;;20.52;51.31;100873.88;5014866;27;101969;-76
2022/05/25 00:37:48;;;;;;;1.13;0.70;;;20.40;99.90;;;20.48;51.33;100866.09;5021158;27;99359;-76
2022/05/25 00:40:22;;;;;;;1.10;0.87;;;20.40;99.90;;;20.52;51.25;100873.88;5032174;27;98283;-78
2022/05/25 00:42:48;;;;;;;0.83;0.60;;;20.40;99.90;;;20.51;51.21;100883.75;5010987;27;97195;-78
2022/05/25 00:45:16;;;;;;;0.77;0.77;;;20.40;99.90;;;20.48;51.44;100876.81;5029138;27;97059;-77
2022/05/25 00:47:52;;;;;;;0.97;0.60;;;20.30;99.90;;;20.48;51.27;100879.47;5020703;27;97154;-78
2022/05/25 00:50:26;;;;;;;0.63;0.63;;;20.30;99.90;;;20.45;51.42;100890.44;5001657;27;97150;-77
2022/05/25 00:52:53;;;;;;;0.87;0.60;;;20.30;99.90;;;20.45;51.40;100884.22;5008258;27;96648;-77
2022/05/25 00:55:27;;;;;;;0.80;0.70;;;20.30;99.90;;;20.47;51.42;100891.16;5014819;27;97443;-77
2022/05/25 00:57:56;;;;;;;1.37;0.50;;;20.30;99.90;;;20.50;51.29;100888.25;4997566;27;98158;-77
2022/05/25 01:00:27;;;;;;;0.67;0.67;;;20.40;99.90;;;20.55;51.08;100895.13;5014282;22;96836;-76
2022/05/25 01:03:08;;;;;;;0.50;0.50;;;20.40;99.90;;;20.55;51.15;100889.78;5020441;27;97437;-76
2022/05/25 01:06:00;;;;;;;0.50;0.50;;;20.40;99.90;;;20.56;51.16;100902.19;5022007;27;101772;-76
2022/05/25 01:09:14;;;;;;;1.53;0.80;;;20.40;99.90;;;20.56;51.02;100907.56;5023648;27;103255;-76
2022/05/25 01:12:00;;;;;;;0.67;0.60;;;20.40;99.90;;;20.54;51.20;100909.47;5013436;27;97306;-76
2022/05/25 01:14:57;;;;;;;0.60;0.60;;;20.40;99.90;;;20.56;51.22;100899.50;5022604;27;97523;-76
2022/05/25 01:17:43;;;;;;;0.67;0.63;;;20.50;99.90;;;20.60;51.13;100903.66;5016867;27;101748;-76
2022/05/25 01:20:34;;;;;;;1.97;0.80;;;20.50;99.90;;;20.61;51.06;100900.03;5031558;27;96989;-77
2022/05/25 01:23:20;;;;;;;0.60;0.60;;;20.50;99.90;;;20.58;51.10;100902.94;5014275;27;97670;-77
2022/05/25 01:26:17;;;;;;;1.23;0.70;;;20.50;99.90;;;20.59;51.23;100912.69;5031957;27;96882;-77
2022/05/25 01:29:07;;;;;;;0.70;0.63;;;20.50;99.90;;;20.57;51.12;100910.13;5030202;27;103711;-77
2022/05/25 01:31:51;;;;;;;0.50;0.50;;;20.50;99.90;;;20.56;51.08;100912.91;5015667;27;101342;-77
2022/05/25 01:34:21;;;;;;;0.60;0.60;;;20.50;99.90;;;20.58;51.06;100921.69;5036416;27;97396;-77
2022/05/25 01:37:02;;;;;;;1.00;0.70;;;20.50;99.90;;;20.62;51.05;100917.81;5039684;27;96558;-76
2022/05/25 01:39:32;;;;;;;1.23;0.70;;;20.50;99.90;;;20.62;50.93;100924.03;5030998;27;102711;-77
2022/05/25 01:42:10;;;;;;;1.90;0.73;;;20.50;99.90;;;20.64;50.78;100921.22;5024893;27;97169;-77
2022/05/25 01:45:00;;;;;;;0.87;0.57;;;20.60;99.90;;;20.65;50.85;100922.94;5020622;27;97271;-76
2022/05/25 01:47:28;;;;;;;1.17;0.80;;;20.60;99.90;;;20.61;50.96;100916.09;5037217;27;97204;-76
2022/05/25 01:50:15;;;;;;;0.90;0.60;;;20.50;99.90;;;20.64;50.92;100921.22;4983341;28;98335;-76
2022/05/25 01:52:49;;;;;;;0.60;0.50;;;20.50;99.90;;;20.60;51.05;100914.38;5002984;28;102513;-76
2022/05/25 01:55:22;;;;;;;0.63;0.53;;;20.50;99.90;;;20.57;51.09;100920.84;5001287;27;97500;-77
2022/05/25 01:57:52;;;;;;;0.90;0.70;;;20.40;99.90;;;20.59;51.05;100918.03;5036834;27;96771;-77
2022/05/25 02:00:29;;;;;;;1.00;0.90;;;20.50;99.90;;;20.62;nan;100917.81;5025454;27;97771;-77
2022/05/25 02:06:21;;;;;;;0.97;0.70;;;20.50;99.90;;;20.57;51.14;100922.66;4921886;28;96919;-77
2022/05/25 02:09:20;;;;;;;1.20;0.70;;;20.40;99.90;;;20.57;51.17;100922.66;5017894;27;97556;-76
2022/05/25 02:12:03;;;;;;;1.03;0.80;;;20.40;99.90;;;20.57;51.34;100925.34;5043262;27;102666;-76
2022/05/25 02:14:58;;;;;;;0.63;0.63;;;20.40;99.90;;;20.58;51.14;100932.41;5004295;27;103462;-77
2022/05/25 02:17:45;;;;;;;1.60;0.90;;;20.40;99.90;;;20.55;51.17;100921.94;5021727;27;97179;-76
2022/05/25 02:20:22;;;;;;;1.80;1.07;;;20.40;99.90;;;20.53;51.21;100937.22;5009628;27;99382;-76
2022/05/25 02:23:00;;;;;;;1.23;0.70;;;20.40;99.90;;;20.50;51.38;100939.16;5000804;28;97432;-76
2022/05/25 02:25:47;;;;;;;1.33;0.90;;;20.40;99.90;;;20.50;51.43;100936.50;5025289;27;104144;-77
2022/05/25 02:29:04;;;;;;;1.17;0.90;;;20.40;99.90;;;20.46;51.39;100940.38;5023235;27;97062;-77
2022/05/25 02:31:36;;;;;;;2.07;1.30;;;20.30;99.90;;;20.37;51.54;100941.00;4978404;27;97684;-77
2022/05/25 02:34:05;;;;;;;1.00;0.90;;;20.10;99.90;;;20.33;51.91;100944.88;5021371;27;97820;-77
2022/05/25 02:36:37;;;;;;;1.33;1.10;;;20.10;99.90;;;20.32;51.83;100948.50;5005906;28;97472;-77
2022/05/25 02:39:09;;;;;;;1.10;0.80;;;20.00;99.90;;;20.26;52.02;100945.44;5023143;27;96843;-77
2022/05/25 02:41:48;;;;;;;1.30;0.90;;;20.00;99.90;;;20.27;51.82;100945.31;5025964;27;97185;-76
2022/05/25 02:44:14;;;;;;;1.37;1.13;;;20.00;99.90;;;20.29;51.99;100943.38;5010789;27;97456;-77
2022/05/25 02:46:40;;;;;;;2.20;1.17;;;20.10;99.90;;;20.27;51.88;100948.00;5022668;27;97174;-76
2022/05/25 02:49:06;;;;;;;0.87;0.87;;;20.10;99.90;;;20.22;51.89;100942.09;5029232;27;97188;-77
2022/05/25 02:51:32;;;;;;;1.00;1.00;;;19.90;99.90;;;20.15;52.22;100946.19;5027004;27;96950;-77
2022/05/25 02:53:58;;;;;;;1.43;0.87;;;19.80;99.90;;;20.10;52.44;100943.81;4997057;27;97263;-77
2022/05/25 02:56:24;;;;;;;1.20;0.90;;;19.70;99.90;;;20.09;52.48;100954.63;5019956;27;100797;-77
2022/05/25 02:58:49;;;;;;;1.07;0.90;;;19.70;99.90;;;20.07;52.55;100948.53;5018632;27;96719;-76
2022/05/25 03:01:15;;;;;;;1.17;0.90;;;19.70;99.90;;;20.02;52.57;100956.91;5020817;27;97048;-77
2022/05/25 03:03:41;;;;;;;1.83;1.50;;;19.60;99.90;;;19.95;52.43;100965.47;5024265;27;107715;-76
2022/05/25 03:06:07;;;;;;;1.67;1.57;;;19.40;99.90;;;19.91;52.70;100959.47;5025602;27;99507;-77
2022/05/25 03:08:35;;;;;;;1.20;1.00;;;19.40;99.90;;;19.87;52.88;100961.50;5024368;27;96493;-77
2022/05/25 03:11:03;;;;;;;1.30;1.20;;;19.40;99.90;;;19.86;52.90;100962.47;5001277;27;97481;-77
2022/05/25 03:13:29;;;;;;;1.93;0.97;;;19.40;99.90;;;19.87;53.09;100958.84;5021784;27;97486;-77
2022/05/25 03:16:05;;;;;;;1.90;1.00;;;19.50;99.90;;;19.85;53.01;100960.75;5015535;27;99658;-77
2022/05/25 03:18:31;;;;;;;1.70;0.97;;;19.40;99.90;;;19.84;53.01;100969.75;5015722;27;96935;-76
2022/05/25 03:20:57;;;;;;;0.80;0.80;;;19.40;99.90;;;19.85;53.20;100971.47;5030873;27;97145;-78
2022/05/25 03:23:23;;;;;;;2.40;0.97;;;19.40;99.90;;;19.85;53.22;100970.63;5020496;27;110456;-77
2022/05/25 03:25:48;;;;;;;1.00;0.90;;;19.40;99.90;;;19.82;53.12;100977.03;5020205;27;110365;-77
2022/05/25 03:28:15;;;;;;;1.67;1.13;;;19.40;99.90;;;19.76;53.33;100981.94;4999982;27;96879;-77
2022/05/25 03:30:44;;;;;;;0.83;0.80;;;19.30;99.90;;;19.74;53.46;100978.53;5018372;27;97272;-77
2022/05/25 03:33:10;;;;;;;1.50;1.10;;;19.20;99.90;;;19.72;53.40;100986.66;5016093;27;97736;-77
2022/05/25 03:35:37;;;;;;;1.20;0.93;;;19.20;99.90;;;19.67;53.61;100983.41;5031992;27;97427;-76
2022/05/25 03:38:04;;;;;;;1.47;1.10;;;19.10;99.90;;;19.67;53.63;100986.09;5018704;27;96794;-77
2022/05/25 03:40:30;;;;;;;1.33;1.23;;;19.10;99.90;;;19.69;53.68;100994.06;5028936;27;97140;-77
2022/05/25 03:42:57;;;;;;;2.80;1.73;;;19.20;99.90;;;19.67;53.73;100994.13;5021720;27;101140;-78
2022/05/25 03:45:24;;;;;;;1.53;0.90;;;19.20;99.90;;;19.67;53.45;100988.78;5015528;27;100230;-77
2022/05/25 03:47:50;;;;;;;1.10;1.00;;;19.20;99.90;;;19.70;53.82;100993.09;5018661;27;96748;-76
2022/05/25 03:50:19;;;;;;;1.10;1.00;;;19.30;99.90;;;19.72;53.51;100991.16;5023833;27;98806;-77
2022/05/25 03:52:46;;;;;;;2.00;0.90;;;19.30;99.90;;;19.74;53.53;100989.22;5000626;27;99068;-77
2022/05/25 03:55:12;;;;;;;1.47;1.10;;;19.30;99.90;;;19.76;53.48;100996.19;5011182;27;99422;-76
2022/05/25 03:57:38;;;;;;;1.13;0.97;;;19.30;99.90;;;19.71;53.53;101006.34;5021853;27;96737;-77
2022/05/25 04:00:06;;;;;;;1.37;1.27;;;19.20;99.90;;;19.70;53.64;101010.00;5025338;27;109007;-77
2022/05/25 04:02:32;;;;;;;2.10;1.63;;;19.20;99.90;;;19.65;53.46;101012.09;5020665;27;97906;-77
2022/05/25 04:05:10;;;;;;;1.30;1.00;;;19.10;99.90;;;19.62;53.80;101012.31;5022183;27;97390;-77
2022/05/25 04:07:47;;;;;;;1.10;1.00;;;19.00;99.90;;;19.63;53.60;101016.72;5015964;27;98462;-77
2022/05/25 04:10:20;;;;;;;1.83;1.10;;;19.10;99.90;;;19.63;53.87;101023.88;5014034;27;97462;-77
2022/05/25 04:12:50;;;;;;;0.83;0.80;;;19.10;99.90;;;19.63;53.84;101024.75;5025663;27;97764;-76
2022/05/25 04:15:21;;;;;;;1.80;1.17;;;19.10;99.90;;;19.64;53.72;101031.81;5027793;27;127630;-77
2022/05/25 04:17:48;;;;;;;1.07;0.97;;;19.20;99.90;;;19.61;53.81;101032.03;5019564;27;97183;-77
2022/05/25 04:20:15;;;;;;;1.00;0.70;;;19.10;99.90;;;19.63;53.55;101024.75;5020345;27;96722;-77
2022/05/25 04:22:41;;;;;;;0.93;0.80;;;19.10;99.90;;;19.67;53.52;101026.25;5007830;27;99911;-77
2022/05/25 04:25:12;;;;;;;4.17;2.00;;;19.20;99.90;;;19.68;52.84;101027.97;5023905;27;96874;-77
2022/05/25 04:27:41;;;;;;;2.63;1.20;;;19.30;99.90;;;19.66;53.58;101024.53;5030922;27;97123;-77
2022/05/25 04:30:10;;;;;;;2.03;1.30;;;19.20;99.90;;;19.65;53.57;101030.84;5021490;27;97151;-77
2022/05/25 04:32:35;;;;;;;2.50;1.23;;;19.20;99.90;;;19.63;53.50;101034.59;5030884;27;96864;-77
2022/05/25 04:35:02;;;;;;;1.10;1.00;;;19.20;99.90;;;19.63;53.50;101035.44;5022417;27;116157;-77
2022/05/25 04:40:13;;;;;;;1.33;1.03;;;19.10;99.90;;;19.51;53.84;101041.56;5022221;27;97379;-77
2022/05/25 04:42:40;;;;;;;1.40;1.30;;;19.00;99.90;;;19.44;54.10;101038.47;5016220;27;97666;-77
2022/05/25 04:45:07;;;;;;;6.47;2.43;;;18.90;99.90;;;19.41;51.03;101040.50;5013493;27;97286;-77
2022/05/25 04:47:37;;;;;;;1.10;1.00;;;18.90;99.90;;;19.42;54.25;101048.41;5007138;27;97275;-77
2022/05/25 04:50:07;;;;;;;4.47;2.73;;;18.80;99.90;;;19.30;53.32;101038.53;5016499;27;97322;-77
2022/05/25 04:52:34;;;;;;;2.73;1.67;;;18.70;99.90;;;19.27;54.27;101052.97;5001746;27;98456;-77
2022/05/25 04:55:00;;;;;;;1.63;1.53;;;18.60;99.90;;;19.21;54.47;101055.16;5016622;27;98157;-77
2022/05/25 04:57:27;;;;;;;3.00;2.10;;;18.50;99.90;;;19.16;53.78;101052.81;5032331;27;97031;-77
2022/05/25 04:59:59;;;;;;;5.70;2.83;;;18.50;99.90;;;19.12;54.58;101062.00;5019048;27;97192;-77
2022/05/25 05:02:26;;;;;;;2.90;1.63;;;18.40;99.90;;;19.04;54.91;101056.25;5020375;27;100468;-77
2022/05/25 05:04:52;;;;;;;2.83;1.53;;;18.30;99.90;;;19.00;55.19;101058.28;5018856;27;98914;-77
2022/05/25 05:07:18;;;;;;;5.07;2.83;;;18.30;99.90;;;18.92;54.55;101065.06;5021941;27;97213;-77
2022/05/25 05:09:46;;;;;;;5.83;2.93;;;18.20;99.90;;;18.99;55.38;101066.41;5021398;27;97142;-76
2022/05/25 05:12:14;;;;;;;7.07;2.70;;;18.30;99.90;;;19.03;55.35;101070.59;5029866;27;99891;-77
2022/05/25 05:14:42;;;;;;;8.17;3.53;;;18.40;99.90;;;19.05;53.17;101071.34;5021552;27;97021;-77
2022/05/25 05:17:08;;;;;;;4.93;2.07;;;18.50;99.90;;;19.02;54.54;101066.22;5019178;27;97318;-77
2022/05/25 05:19:34;;;;;;;4.13;2.43;;;18.40;99.90;;;19.00;54.24;101076.16;5026205;27;97477;-77
2022/05/25 05:22:00;;;;;;;5.63;2.67;;;18.40;99.90;;;19.01;55.30;101075.19;5030799;27;125394;-77
2022/05/25 05:24:28;;;;;;;5.97;2.73;;;18.40;99.90;;;18.93;55.09;101080.16;5022598;27;97692;-77
2022/05/25 05:26:55;;;;;;;4.30;2.37;;;18.30;99.90;;;18.98;55.45;101075.38;5020342;27;96950;-77
2022/05/25 05:29:22;;;;;;;7.10;3.47;;;18.30;99.90;;;18.92;52.55;101089.13;5033869;27;97036;-77
2022/05/25 05:31:48;;;;;;;3.40;2.30;;;18.30;99.90;;;19.02;54.74;101082.25;5034634;27;97481;-77
2022/05/25 05:34:14;;;;;;;6.47;2.70;;;18.40;99.90;;;19.17;54.63;101077.72;5015958;27;127686;-77
2022/05/25 05:36:52;;;;;;;3.50;2.40;;;18.80;99.90;;;19.27;54.40;101081.53;5016958;27;111504;-77
2022/05/25 05:39:21;;;;;;;3.50;2.13;;;18.90;99.90;;;19.36;53.84;101080.91;5001867;27;97152;-77
2022/05/25 05:41:56;;;;;;;4.80;2.67;;;19.10;99.90;;;19.47;53.37;101074.84;5028502;27;99912;-77
2022/05/25 05:44:28;;;;;;;5.17;2.50;;;19.20;99.90;;;19.54;50.85;101079.75;5010927;27;100533;-77
2022/05/25 05:46:58;;;;;;;5.27;2.07;;;19.40;99.90;;;19.65;53.15;101089.72;5015409;27;97014;-77
2022/05/25 05:49:24;;;;;;;4.23;2.13;;;19.50;99.90;;;19.70;53.17;101087.59;4998129;27;98765;-77
2022/05/25 05:51:50;;;;;;;3.87;2.57;;;19.60;99.90;;;19.78;52.86;101092.44;5020965;27;97562;-77
2022/05/25 05:54:17;;;;;;;8.83;2.60;;;19.60;99.90;;;19.78;52.33;101093.28;4998455;27;124583;-77
2022/05/25 05:56:43;;;;;;;3.97;2.23;;;19.60;99.90;;;19.80;52.54;101090.50;5005952;27;97081;-77
2022/05/25 05:59:09;;;;;;;4.70;2.87;;;19.50;99.90;;;19.84;52.39;101102.75;4992259;27;96906;-77
2022/05/25 06:01:36;;;;;;;4.37;2.43;;;19.60;99.90;;;19.84;52.46;101092.91;5013328;27;98052;-77
2022/05/25 06:04:03;;;;;;;4.93;2.13;;;19.60;99.90;;;19.76;52.17;101100.56;5015015;27;98873;-77
2022/05/25 06:06:29;;;;;;;3.90;2.40;;;19.50;99.90;;;19.67;49.61;101092.28;5029390;27;96687;-77
2022/05/25 06:08:56;;;;;;;7.17;3.17;;;19.30;99.90;;;19.58;53.05;101096.44;5001447;28;97543;-77
2022/05/25 06:11:23;;;;;;;4.60;2.57;;;19.10;99.90;;;19.66;52.74;101102.13;5020473;27;102924;-77
2022/05/25 06:13:49;;;;;;;5.40;2.67;;;19.40;99.90;;;19.74;52.68;101105.16;5022485;27;103265;-77
2022/05/25 06:21:55;;;;;;;5.63;2.27;;;19.30;99.90;;;19.63;50.48;101121.06;5024388;27;96923;-77
2022/05/25 06:24:21;;;;;;;4.17;2.13;;;19.30;99.90;;;19.63;52.39;101115.72;5004707;27;98573;-77
2022/05/25 06:26:47;;;;;;;5.10;2.30;;;19.30;99.90;;;19.66;52.12;101120.00;5020526;27;97439;-77
2022/05/25 06:29:16;;;;;;;3.70;1.83;;;19.50;99.90;;;19.72;52.53;101117.81;5000591;27;114536;-77
2022/05/25 06:31:42;;;;;;;7.40;2.40;;;19.60;99.90;;;19.81;51.16;101117.16;5010554;27;98274;-77
2022/05/25 06:34:08;;;;;;;5.57;2.00;;;19.70;99.80;;;19.85;51.86;101132.09;5016130;27;119494;-77
2022/05/25 06:36:34;;;;;;;3.20;1.90;;;19.70;99.90;;;19.87;51.77;101124.81;5028844;27;111466;-77
2022/05/25 06:39:00;;;;;;;2.60;1.73;;;19.70;99.90;;;19.91;50.54;101123.63;5021926;27;97356;-78
2022/05/25 06:41:26;;;;;;;5.57;1.63;;;19.80;99.80;;;19.94;48.45;101127.91;5001840;27;97577;-77
2022/05/25 06:43:52;;;;;;;4.60;1.90;;;19.80;99.90;;;19.83;48.14;101123.31;5027434;27;97473;-77
2022/05/25 06:46:19;;;;;;;7.30;1.90;;;19.60;98.80;;;19.76;52.08;101127.34;5018129;27;96823;-77
2022/05/25 06:48:51;;;;;;;4.60;1.40;;;19.50;99.90;;;19.74;50.63;101129.25;5019651;27;96816;-78
2022/05/25 06:51:24;;;;;;;3.83;1.57;;;19.50;99.90;;;19.83;51.84;101134.00;5015310;27;99701;-77
2022/05/25 06:53:50;;;;;;;3.10;1.40;;;19.70;99.90;;;19.88;51.90;101131.88;5021595;27;96867;-77
2022/05/25 06:56:18;;;;;;;2.37;1.10;;;19.80;99.90;;;19.95;50.88;101126.09;4996248;27;96629;-78
2022/05/25 06:58:44;;;;;;;2.10;1.13;;;19.90;99.90;;;19.94;47.90;101124.38;5025673;27;97464;-78
2022/05/25 07:01:10;;;;;;;4.10;1.40;;;19.80;98.30;;;19.96;51.43;101133.16;5016225;27;97738;-78
2022/05/25 07:03:38;;;;;;;3.93;1.20;;;19.70;99.90;;;19.95;49.81;101131.44;5019882;27;127056;-78
2022/05/25 07:06:09;;;;;;;3.83;1.53;;;19.70;99.70;;;19.85;51.18;101137.44;5028615;27;97064;-78
2022/05/25 07:08:35;;;;;;;5.30;1.60;;;19.50;99.90;;;19.91;50.69;101126.31;5023149;27;96781;-78
2022/05/25 07:11:02;;;;;;;3.83;1.23;;;19.70;99.90;;;19.85;50.25;101121.38;5015698;27;96850;-78
2022/05/25 07:13:30;;;;;;;2.70;1.00;;;19.70;99.90;;;19.75;43.55;101130.13;5009279;27;99076;-78
2022/05/25 07:16:02;;;;;;;2.20;0.80;;;19.60;96.20;;;19.79;51.39;101127.13;5042041;27;97205;-78
2022/05/25 07:18:29;;;;;;;2.00;0.83;;;19.60;99.90;;;19.82;50.79;101137.66;5025182;27;97118;-78
2022/05/25 07:21:07;;;;;;;2.17;1.03;;;19.60;99.90;;;19.85;49.54;101137.44;5042707;27;97514;-78
2022/05/25 07:23:37;;;;;;;2.60;1.00;;;19.70;99.90;;;19.83;49.49;101138.50;5021191;27;100677;-78
2022/05/25 07:26:04;;;;;;;1.73;1.00;;;19.70;99.40;;;19.81;48.76;101141.25;5031104;27;97130;-78
2022/05/25 07:28:30;;;;;;;2.80;0.90;;;19.70;98.80;;;19.88;50.99;101137.22;5030656;27;97682;-77
2022/05/25 07:31:03;;;;;;;3.10;0.87;;;19.80;99.90;;;19.88;45.28;101139.03;5012008;27;97913;-78
2022/05/25 07:33:29;;;;;;;2.10;0.73;;;19.80;97.20;;;19.88;47.79;101145.25;5018130;27;101160;-77
2022/05/25 07:35:55;;;;;;;2.10;0.90;;;19.80;99.80;;;19.96;50.75;101150.09;5006799;27;108358;-78
2022/05/25 07:38:21;;;;;;;2.60;1.10;;;19.90;99.90;;;20.02;49.62;101143.47;5029723;27;97023;-80
2022/05/25 07:40:48;;;;;;;1.83;0.63;;;20.00;99.90;;;20.08;50.57;101137.69;5006509;27;128095;-80
2022/05/25 07:43:19;;;;;;;2.10;1.50;;;20.10;99.90;;;20.05;43.75;101132.56;5011828;27;97280;-79
2022/05/25 07:45:45;;;;;;;2.10;0.93;;;20.00;96.40;;;20.04;49.83;101138.88;5022688;27;97333;-79
2022/05/25 07:48:14;;;;;;;2.13;1.10;;;19.90;99.90;;;20.03;46.33;101139.84;5013265;27;96784;-79
2022/05/25 07:50:42;;;;;;;2.03;0.60;;;20.00;97.30;;;20.11;50.32;101142.88;5019894;27;117543;-79
2022/05/25 07:55:57;;;;;;;2.67;0.77;;;20.00;99.90;;;20.09;49.04;101140.25;5008821;27;97159;-79
2022/05/25 07:58:22;;;;;;;1.53;0.77;;;20.00;99.90;;;20.14;50.32;101148.88;5021834;27;116882;-79
2022/05/25 08:00:53;;;;;;;1.60;0.83;;;20.00;99.90;;;20.21;49.76;101149.28;5027412;27;124850;-79
2022/05/25 08:06:05;;;;;;;1.00;0.80;;;20.10;99.20;;;20.07;49.09;101152.03;5022916;27;96971;-79
2022/05/25 08:08:31;;;;;;;1.67;0.67;;;20.10;98.70;;;20.06;48.91;101155.69;5025908;27;96815;-79
2022/05/25 08:11:13;;;;;;;1.90;0.57;;;20.00;98.90;;;19.87;42.87;101151.56;5002623;27;126982;-79
2022/05/25 08:13:43;;;;;;;1.87;0.90;;;19.90;95.80;;;19.99;50.28;101143.69;5024873;27;101403;-79
2022/05/25 08:16:09;;;;;;;2.57;0.73;;;20.00;99.90;;;19.90;43.72;101154.03;5023208;27;97346;-79
2022/05/25 08:18:35;;;;;;;1.43;0.77;;;20.00;96.40;;;19.96;47.33;101154.56;5043796;27;96787;-79
2022/05/25 08:21:01;;;;;;;1.80;0.70;;;20.00;98.50;;;20.00;49.87;101146.25;5013564;27;99686;-79
2022/05/25 08:23:27;;;;;;;1.83;0.63;;;20.00;99.90;;;20.01;48.48;101155.16;5024742;27;98103;-79
2022/05/25 08:25:57;;;;;;;2.37;0.50;;;20.00;99.10;;;19.98;47.88;101153.53;5026643;27;96926;-79
2022/05/25 08:28:22;;;;;;;2.23;0.60;;;20.00;98.20;;;20.02;48.85;101159.53;5022202;27;97370;-79
2022/05/25 08:30:49;;;;;;;2.13;0.40;;;20.00;99.10;;;20.07;48.38;101152.03;5026020;27;97233;-78
2022/05/25 08:33:21;;;;;;;2.10;0.50;;;20.00;98.90;;;19.87;43.95;101151.56;5005482;27;112953;-78
2022/05/25 08:35:48;;;;;;;1.77;0.90;;;20.00;95.90;;;19.98;49.85;101155.38;5026447;27;97871;-78
2022/05/25 08:38:14;;;;;;;1.93;0.60;;;20.00;99.70;;;20.00;46.56;101148.09;5000597;27;97647;-79
2022/05/25 08:40:41;;;;;;;3.57;0.60;;;20.00;96.80;;;20.15;45.45;101149.72;5044165;27;120943;-80
2022/05/25 08:43:27;;;;;;;2.13;0.67;;;20.10;95.40;;;20.23;48.87;101150.03;5019099;27;113381;-80
2022/05/25 08:46:06;;;;;;;1.40;0.60;;;20.10;98.90;;;20.14;43.60;101142.66;5020973;27;97092;-79
2022/05/25 08:48:34;;;;;;;0.83;0.43;;;20.10;95.80;;;20.14;47.93;101142.66;5010242;27;97352;-79
2022/05/25 08:51:09;;;;;;;1.20;0.60;;;20.10;98.00;;;20.13;45.51;101148.97;5020280;27;96959;-79
2022/05/25 08:53:37;;;;;;;0.73;0.40;;;20.10;96.40;;;19.95;42.56;101136.81;5023127;27;97977;-80
2022/05/25 08:56:32;;;;;;;0.70;0.30;;;20.10;93.90;;;20.11;44.09;101137.50;5020719;27;97020;-80
2022/05/25 08:59:16;;;;;;;2.23;0.50;;;20.10;96.60;;;20.19;47.07;101136.00;5013291;27;99118;-79
2022/05/25 09:02:20;;;;;;;1.87;0.50;;;20.20;98.00;;;20.14;42.41;101153.38;5012392;27;102421;-79
2022/05/25 09:05:07;;;;;;;1.87;0.60;;;20.20;94.70;;;20.02;42.72;101149.69;5011697;27;103377;-79
2022/05/25 09:07:50;;;;;;;1.33;0.40;;;20.10;94.90;;;20.17;48.48;101154.00;5051302;27;97107;-79
2022/05/25 09:10:19;;;;;;;3.93;0.50;;;20.20;98.60;;;20.22;42.72;101145.66;5021474;27;98874;-79
2022/05/25 09:12:49;;;;;;;1.73;0.60;;;20.20;95.20;;;20.06;40.81;101142.31;5034574;27;97337;-79
2022/05/25 09:16:15;;;;;;;2.30;0.70;;;20.10;92.90;;;20.10;43.57;101151.84;5027605;27;97024;-79
2022/05/25 09:18:33;;;;;;;1.90;0.40;;;20.10;94.00;;;20.13;47.54;101148.97;5014410;27;97108;-78
2022/05/25 09:21:01;;;;;;;1.47;0.40;;;20.10;96.70;;;20.15;40.56;101145.22;5035196;27;96939;-79
2022/05/25 09:23:28;;;;;;;0.87;0.30;;;20.10;92.60;;;19.97;40.81;101146.47;5042843;27;98520;-78
2022/05/25 09:25:55;;;;;;;1.37;0.40;;;20.00;92.70;;;19.88;40.92;101147.94;5025309;27;97158;-79
2022/05/25 09:28:34;;;;;;;2.73;0.60;;;19.90;92.50;;;19.83;42.21;101160.78;4999649;27;97094;-79
2022/05/25 09:31:02;;;;;;;3.23;0.47;;;19.90;93.20;;;19.95;44.83;101155.53;5026549;27;97625;-80
2022/05/25 09:33:55;;;;;;;2.10;0.70;;;20.00;94.90;;;20.07;44.65;101146.69;5026545;27;98196;-79
2022/05/25 09:36:28;;;;;;;2.00;0.50;;;20.00;95.30;;;20.14;47.96;101151.53;4978730;27;100824;-79
2022/05/25 09:39:23;;;;;;;0.77;0.57;;;20.10;97.60;;;20.10;44.72;101146.47;5026836;27;96984;-79
2022/05/25 09:41:56;;;;;;;1.70;0.53;;;20.00;94.30;;;20.08;47.84;101140.38;5037965;27;97124;-80
2022/05/25 09:44:23;;;;;;;3.27;0.57;;;20.10;97.40;;;20.17;46.20;101150.47;5015174;27;102383;-80
2022/05/25 09:47:06;;;;;;;1.03;0.53;;;20.10;96.00;;;20.17;43.23;101147.78;5028874;27;97117;-79
2022/05/25 09:49:41;;;;;;;1.83;0.60;;;20.20;94.30;;;20.14;46.21;101153.38;5005150;28;97414;-80
2022/05/25 09:52:16;;;;;;;1.17;0.40;;;20.20;95.80;;;20.24;39.05;101159.78;5008417;27;96921;-80
2022/05/25 09:54:48;;;;;;;2.67;0.47;;;20.30;91.80;;;20.28;38.10;101155.97;5012691;27;98941;-80
2022/05/25 09:57:22;;;;;;;1.47;0.40;;;20.20;89.70;;;20.30;38.91;101164.75;5024466;27;98222;-80
2022/05/25 09:59:56;;;;;;;3.43;0.30;;;20.30;91.00;;;20.37;46.15;101166.03;5035695;27;96808;-79
2022/05/25 10:02:27;;;;;;;2.17;0.40;;;20.40;95.00;;;20.39;41.28;101169.47;5024997;27;97255;-79
2022/05/25 10:04:57;;;;;;;2.50;0.50;;;20.40;92.60;;;20.41;45.43;101161.34;5022547;27;96729;-80
2022/05/25 10:07:32;;;;;;;1.90;0.40;;;20.40;95.00;;;20.33;41.80;101169.88;5039727;27;97186;-79
2022/05/25 10:10:10;;;;;;;3.90;0.97;;;20.40;92.90;;;20.39;41.40;101158.75;5032374;27;96922;-80
2022/05/25 10:12:39;;;;;;;3.17;0.43;;;20.50;94.40;;;20.47;41.69;101155.56;5035864;27;97392;-80
2022/05/25 10:15:11;;;;;;;1.07;0.40;;;20.50;93.20;;;20.46;42.54;101153.88;5026630;27;97414;-80
2022/05/25 10:17:47;;;;;;;1.73;0.50;;;20.50;92.50;;;20.48;42.65;101147.44;5029187;27;98781;-80
2022/05/25 10:20:41;;;;;;;1.57;0.40;;;20.60;93.50;;;20.41;44.43;101156.88;5035418;27;96938;-80
2022/05/25 10:23:22;;;;;;;1.67;0.60;;;20.50;94.00;;;20.25;37.83;101161.50;5011812;27;97042;-80
2022/05/25 10:26:11;;;;;;;2.30;0.70;;;20.40;90.10;;;20.05;39.14;101157.50;5023067;28;98471;-80
2022/05/25 10:28:56;;;;;;;1.20;0.30;;;20.20;88.80;;;20.14;41.35;101156.03;5023517;27;104386;-78
2022/05/25 10:37:12;;;;;;;1.63;0.50;;;20.20;91.70;;;20.08;42.49;101148.41;5028364;27;97143;-80
2022/05/25 10:39:55;;;;;;;1.30;0.40;;;20.20;92.60;;;20.21;43.69;101144.78;5029556;27;96587;-80
2022/05/25 10:42:26;;;;;;;0.37;0.20;;;20.30;94.60;;;20.22;41.57;101134.94;5026714;27;97562;-79
2022/05/25 10:45:09;;;;;;;2.50;0.50;;;20.40;91.90;;;20.35;40.23;101138.50;5029604;27;96771;-79
2022/05/25 10:47:54;;;;;;;1.80;0.50;;;20.50;91.60;;;20.16;39.29;101151.44;5041912;27;100344;-79
2022/05/25 10:50:55;;;;;;;1.30;0.33;;;20.30;90.40;;;20.24;41.31;101133.00;5030353;27;96867;-79
2022/05/25 10:54:44;;;;;;;1.70;0.40;;;20.40;92.30;;;20.48;40.25;101135.84;5006384;27;96920;-80